sensor_id;sensor_type;location;lat;lon;timestamp;P1;durP1;ratioP1;P2;durP2;ratioP2
75626;SDS011;67372;49.404;11.034;2023-08-01T00:00:09;9.18;;;4.18;;
75626;SDS011;67372;49.404;11.034;2023-08-01T00:02:35;6.63;;;3.33;;
75626;SDS011;67372;49.404;11.034;2023-08-01T00:05:02;7.10;;;3.70;;
75626;SDS011;67372;49.404;11.034;2023-08-01T00:07:28;8.50;;;3.60;;
75626;SDS011;67372;49.404;11.034;2023-08-01T00:09:55;6.07;;;3.50;;
75626;SDS011;67372;49.404;11.034;2023-08-01T00:12:23;6.63;;;3.47;;
75626;SDS011;67372;49.404;11.034;2023-08-01T00:14:50;6.63;;;3.80;;
75626;SDS011;67372;49.404;11.034;2023-08-01T00:17:17;5.38;;;3.53;;
75626;SDS011;67372;49.404;11.034;2023-08-01T00:19:43;6.53;;;3.60;;
75626;SDS011;67372;49.404;11.034;2023-08-01T00:22:09;7.90;;;3.63;;
75626;SDS011;67372;49.404;11.034;2023-08-01T00:24:36;6.32;;;3.65;;
75626;SDS011;67372;49.404;11.034;2023-08-01T00:27:03;5.55;;;3.28;;
75626;SDS011;67372;49.404;11.034;2023-08-01T00:29:30;7.95;;;3.33;;
75626;SDS011;67372;49.404;11.034;2023-08-01T00:31:56;6.07;;;3.15;;
75626;SDS011;67372;49.404;11.034;2023-08-01T00:34:23;6.43;;;3.55;;
75626;SDS011;67372;49.404;11.034;2023-08-01T00:36:49;5.20;;;3.33;;
75626;SDS011;67372;49.404;11.034;2023-08-01T00:39:15;6.65;;;3.50;;
75626;SDS011;67372;49.404;11.034;2023-08-01T00:41:42;5.97;;;3.22;;
75626;SDS011;67372;49.404;11.034;2023-08-01T00:44:08;5.65;;;3.40;;
75626;SDS011;67372;49.404;11.034;2023-08-01T00:46:35;5.30;;;3.28;;
75626;SDS011;67372;49.404;11.034;2023-08-01T00:49:02;7.30;;;3.60;;
75626;SDS011;67372;49.404;11.034;2023-08-01T00:51:28;6.80;;;3.65;;
75626;SDS011;67372;49.404;11.034;2023-08-01T00:53:57;8.05;;;3.70;;
75626;SDS011;67372;49.404;11.034;2023-08-01T00:56:24;5.47;;;3.35;;
75626;SDS011;67372;49.404;11.034;2023-08-01T00:58:51;5.13;;;3.20;;
75626;SDS011;67372;49.404;11.034;2023-08-01T01:01:17;5.97;;;3.33;;
75626;SDS011;67372;49.404;11.034;2023-08-01T01:03:44;7.40;;;3.47;;
75626;SDS011;67372;49.404;11.034;2023-08-01T01:06:24;7.38;;;3.35;;
75626;SDS011;67372;49.404;11.034;2023-08-01T01:08:56;7.78;;;3.25;;
75626;SDS011;67372;49.404;11.034;2023-08-01T01:11:22;6.18;;;3.95;;
75626;SDS011;67372;49.404;11.034;2023-08-01T01:13:49;6.72;;;3.78;;
75626;SDS011;67372;49.404;11.034;2023-08-01T01:16:16;6.40;;;3.67;;
75626;SDS011;67372;49.404;11.034;2023-08-01T01:18:42;5.25;;;3.42;;
75626;SDS011;67372;49.404;11.034;2023-08-01T01:21:09;6.03;;;2.95;;
75626;SDS011;67372;49.404;11.034;2023-08-01T01:23:35;6.03;;;3.13;;
75626;SDS011;67372;49.404;11.034;2023-08-01T01:28:30;6.18;;;3.05;;
75626;SDS011;67372;49.404;11.034;2023-08-01T01:30:58;4.57;;;2.92;;
75626;SDS011;67372;49.404;11.034;2023-08-01T01:33:25;5.75;;;3.05;;
75626;SDS011;67372;49.404;11.034;2023-08-01T01:35:51;4.30;;;2.45;;
75626;SDS011;67372;49.404;11.034;2023-08-01T01:38:18;6.40;;;2.85;;
75626;SDS011;67372;49.404;11.034;2023-08-01T01:40:44;6.18;;;2.97;;
75626;SDS011;67372;49.404;11.034;2023-08-01T01:43:11;5.63;;;2.65;;
75626;SDS011;67372;49.404;11.034;2023-08-01T01:45:37;6.90;;;2.88;;
75626;SDS011;67372;49.404;11.034;2023-08-01T01:48:03;5.25;;;2.97;;
75626;SDS011;67372;49.404;11.034;2023-08-01T01:50:30;6.55;;;3.20;;
75626;SDS011;67372;49.404;11.034;2023-08-01T01:52:56;6.07;;;3.22;;
75626;SDS011;67372;49.404;11.034;2023-08-01T01:55:23;4.53;;;2.60;;
75626;SDS011;67372;49.404;11.034;2023-08-01T01:57:49;5.82;;;2.88;;
75626;SDS011;67372;49.404;11.034;2023-08-01T02:00:15;5.82;;;2.88;;
75626;SDS011;67372;49.404;11.034;2023-08-01T02:02:42;4.28;;;2.67;;
75626;SDS011;67372;49.404;11.034;2023-08-01T02:05:09;6.60;;;2.97;;
75626;SDS011;67372;49.404;11.034;2023-08-01T02:07:35;4.78;;;2.50;;
75626;SDS011;67372;49.404;11.034;2023-08-01T02:10:01;5.97;;;2.50;;
75626;SDS011;67372;49.404;11.034;2023-08-01T02:12:28;5.05;;;2.55;;
75626;SDS011;67372;49.404;11.034;2023-08-01T02:14:54;4.50;;;2.45;;
75626;SDS011;67372;49.404;11.034;2023-08-01T02:17:21;5.30;;;2.72;;
75626;SDS011;67372;49.404;11.034;2023-08-01T02:19:47;4.53;;;2.50;;
75626;SDS011;67372;49.404;11.034;2023-08-01T02:22:14;5.20;;;2.42;;
75626;SDS011;67372;49.404;11.034;2023-08-01T02:24:40;5.00;;;2.30;;
75626;SDS011;67372;49.404;11.034;2023-08-01T02:27:07;5.35;;;2.70;;
75626;SDS011;67372;49.404;11.034;2023-08-01T02:29:33;4.50;;;2.72;;
75626;SDS011;67372;49.404;11.034;2023-08-01T02:31:59;5.18;;;2.40;;
75626;SDS011;67372;49.404;11.034;2023-08-01T02:34:26;6.00;;;2.55;;
75626;SDS011;67372;49.404;11.034;2023-08-01T02:36:52;5.85;;;2.80;;
75626;SDS011;67372;49.404;11.034;2023-08-01T02:39:18;5.15;;;2.65;;
75626;SDS011;67372;49.404;11.034;2023-08-01T02:41:45;4.03;;;2.33;;
75626;SDS011;67372;49.404;11.034;2023-08-01T02:44:11;4.55;;;2.47;;
75626;SDS011;67372;49.404;11.034;2023-08-01T02:46:38;6.32;;;2.55;;
75626;SDS011;67372;49.404;11.034;2023-08-01T02:49:04;6.20;;;2.42;;
75626;SDS011;67372;49.404;11.034;2023-08-01T02:51:31;4.55;;;2.58;;
75626;SDS011;67372;49.404;11.034;2023-08-01T02:53:57;5.38;;;2.30;;
75626;SDS011;67372;49.404;11.034;2023-08-01T02:56:23;5.78;;;2.42;;
75626;SDS011;67372;49.404;11.034;2023-08-01T02:58:50;4.55;;;3.08;;
75626;SDS011;67372;49.404;11.034;2023-08-01T03:01:16;6.03;;;2.90;;
75626;SDS011;67372;49.404;11.034;2023-08-01T03:03:43;4.75;;;2.90;;
75626;SDS011;67372;49.404;11.034;2023-08-01T03:06:09;5.63;;;2.92;;
75626;SDS011;67372;49.404;11.034;2023-08-01T03:08:36;7.10;;;2.97;;
75626;SDS011;67372;49.404;11.034;2023-08-01T03:11:02;6.97;;;3.20;;
75626;SDS011;67372;49.404;11.034;2023-08-01T03:13:29;5.65;;;2.97;;
75626;SDS011;67372;49.404;11.034;2023-08-01T03:15:55;7.57;;;3.58;;
75626;SDS011;67372;49.404;11.034;2023-08-01T03:18:22;6.38;;;3.10;;
75626;SDS011;67372;49.404;11.034;2023-08-01T03:20:48;8.10;;;3.13;;
75626;SDS011;67372;49.404;11.034;2023-08-01T03:23:14;7.18;;;3.38;;
75626;SDS011;67372;49.404;11.034;2023-08-01T03:25:41;6.15;;;3.00;;
75626;SDS011;67372;49.404;11.034;2023-08-01T03:28:07;5.82;;;3.20;;
75626;SDS011;67372;49.404;11.034;2023-08-01T03:30:34;5.55;;;3.40;;
75626;SDS011;67372;49.404;11.034;2023-08-01T03:33:01;6.00;;;3.10;;
75626;SDS011;67372;49.404;11.034;2023-08-01T03:35:27;5.40;;;3.17;;
75626;SDS011;67372;49.404;11.034;2023-08-01T03:37:54;6.00;;;3.30;;
75626;SDS011;67372;49.404;11.034;2023-08-01T03:40:20;7.55;;;3.50;;
75626;SDS011;67372;49.404;11.034;2023-08-01T03:42:47;6.07;;;2.85;;
75626;SDS011;67372;49.404;11.034;2023-08-01T03:45:13;4.60;;;2.58;;
75626;SDS011;67372;49.404;11.034;2023-08-01T03:47:40;4.13;;;2.58;;
75626;SDS011;67372;49.404;11.034;2023-08-01T03:50:06;5.63;;;2.72;;
75626;SDS011;67372;49.404;11.034;2023-08-01T03:52:33;5.68;;;2.88;;
75626;SDS011;67372;49.404;11.034;2023-08-01T03:54:59;4.10;;;2.78;;
75626;SDS011;67372;49.404;11.034;2023-08-01T03:57:26;4.72;;;2.30;;
75626;SDS011;67372;49.404;11.034;2023-08-01T03:59:52;6.28;;;3.15;;
75626;SDS011;67372;49.404;11.034;2023-08-01T04:02:19;5.30;;;2.85;;
75626;SDS011;67372;49.404;11.034;2023-08-01T04:04:45;4.97;;;2.60;;
75626;SDS011;67372;49.404;11.034;2023-08-01T04:07:11;6.07;;;2.63;;
75626;SDS011;67372;49.404;11.034;2023-08-01T04:09:38;3.78;;;2.40;;
75626;SDS011;67372;49.404;11.034;2023-08-01T04:12:04;6.93;;;2.70;;
75626;SDS011;67372;49.404;11.034;2023-08-01T04:14:31;4.28;;;2.55;;
75626;SDS011;67372;49.404;11.034;2023-08-01T04:16:57;4.22;;;2.25;;
75626;SDS011;67372;49.404;11.034;2023-08-01T04:19:24;5.50;;;2.80;;
75626;SDS011;67372;49.404;11.034;2023-08-01T04:21:50;4.80;;;2.45;;
75626;SDS011;67372;49.404;11.034;2023-08-01T04:24:17;3.58;;;2.28;;
75626;SDS011;67372;49.404;11.034;2023-08-01T04:26:43;4.72;;;2.85;;
75626;SDS011;67372;49.404;11.034;2023-08-01T04:29:09;6.15;;;2.80;;
75626;SDS011;67372;49.404;11.034;2023-08-01T04:31:36;4.47;;;2.38;;
75626;SDS011;67372;49.404;11.034;2023-08-01T04:34:02;5.05;;;2.65;;
75626;SDS011;67372;49.404;11.034;2023-08-01T04:36:29;4.68;;;2.42;;
75626;SDS011;67372;49.404;11.034;2023-08-01T04:38:55;5.85;;;2.75;;
75626;SDS011;67372;49.404;11.034;2023-08-01T04:41:21;4.78;;;2.45;;
75626;SDS011;67372;49.404;11.034;2023-08-01T04:43:48;6.88;;;2.50;;
75626;SDS011;67372;49.404;11.034;2023-08-01T04:46:14;5.55;;;2.80;;
75626;SDS011;67372;49.404;11.034;2023-08-01T04:48:41;5.03;;;2.47;;
75626;SDS011;67372;49.404;11.034;2023-08-01T04:51:07;5.32;;;2.97;;
75626;SDS011;67372;49.404;11.034;2023-08-01T04:53:33;4.20;;;2.50;;
75626;SDS011;67372;49.404;11.034;2023-08-01T04:56:00;4.43;;;2.42;;
75626;SDS011;67372;49.404;11.034;2023-08-01T04:58:26;5.72;;;2.83;;
75626;SDS011;67372;49.404;11.034;2023-08-01T05:00:52;5.72;;;2.85;;
75626;SDS011;67372;49.404;11.034;2023-08-01T05:03:19;5.65;;;3.10;;
75626;SDS011;67372;49.404;11.034;2023-08-01T05:05:45;6.18;;;3.00;;
75626;SDS011;67372;49.404;11.034;2023-08-01T05:08:12;4.75;;;2.80;;
75626;SDS011;67372;49.404;11.034;2023-08-01T05:10:38;6.13;;;2.80;;
75626;SDS011;67372;49.404;11.034;2023-08-01T05:13:05;4.53;;;2.58;;
75626;SDS011;67372;49.404;11.034;2023-08-01T05:15:32;5.32;;;2.75;;
75626;SDS011;67372;49.404;11.034;2023-08-01T05:17:58;5.80;;;2.78;;
75626;SDS011;67372;49.404;11.034;2023-08-01T05:20:24;5.28;;;2.65;;
75626;SDS011;67372;49.404;11.034;2023-08-01T05:22:51;4.32;;;2.80;;
75626;SDS011;67372;49.404;11.034;2023-08-01T05:25:21;4.47;;;2.67;;
75626;SDS011;67372;49.404;11.034;2023-08-01T05:27:47;4.80;;;2.50;;
75626;SDS011;67372;49.404;11.034;2023-08-01T05:30:14;5.90;;;2.90;;
75626;SDS011;67372;49.404;11.034;2023-08-01T05:32:40;5.50;;;2.53;;
75626;SDS011;67372;49.404;11.034;2023-08-01T05:35:07;6.50;;;3.08;;
75626;SDS011;67372;49.404;11.034;2023-08-01T05:37:33;6.90;;;2.70;;
75626;SDS011;67372;49.404;11.034;2023-08-01T05:40:00;5.05;;;2.88;;
75626;SDS011;67372;49.404;11.034;2023-08-01T05:42:28;4.88;;;2.95;;
75626;SDS011;67372;49.404;11.034;2023-08-01T05:44:54;4.22;;;2.35;;
75626;SDS011;67372;49.404;11.034;2023-08-01T05:47:21;3.90;;;2.30;;
75626;SDS011;67372;49.404;11.034;2023-08-01T05:49:47;5.32;;;2.70;;
75626;SDS011;67372;49.404;11.034;2023-08-01T05:52:14;5.75;;;2.78;;
75626;SDS011;67372;49.404;11.034;2023-08-01T05:54:40;4.15;;;2.42;;
75626;SDS011;67372;49.404;11.034;2023-08-01T05:57:07;3.88;;;2.40;;
75626;SDS011;67372;49.404;11.034;2023-08-01T06:02:00;8.05;;;2.50;;
75626;SDS011;67372;49.404;11.034;2023-08-01T06:04:27;4.57;;;2.60;;
75626;SDS011;67372;49.404;11.034;2023-08-01T06:06:53;6.15;;;2.70;;
75626;SDS011;67372;49.404;11.034;2023-08-01T06:09:20;6.13;;;2.60;;
75626;SDS011;67372;49.404;11.034;2023-08-01T06:11:49;4.40;;;2.38;;
75626;SDS011;67372;49.404;11.034;2023-08-01T06:14:15;5.30;;;2.58;;
75626;SDS011;67372;49.404;11.034;2023-08-01T06:16:42;4.55;;;2.90;;
75626;SDS011;67372;49.404;11.034;2023-08-01T06:19:09;5.22;;;2.80;;
75626;SDS011;67372;49.404;11.034;2023-08-01T06:21:35;5.47;;;2.58;;
75626;SDS011;67372;49.404;11.034;2023-08-01T06:24:01;5.50;;;3.03;;
75626;SDS011;67372;49.404;11.034;2023-08-01T06:26:28;4.45;;;2.88;;
75626;SDS011;67372;49.404;11.034;2023-08-01T06:28:54;5.18;;;2.65;;
75626;SDS011;67372;49.404;11.034;2023-08-01T06:31:21;6.75;;;2.78;;
75626;SDS011;67372;49.404;11.034;2023-08-01T06:33:47;5.82;;;2.83;;
75626;SDS011;67372;49.404;11.034;2023-08-01T06:36:14;5.30;;;3.05;;
75626;SDS011;67372;49.404;11.034;2023-08-01T06:38:42;4.88;;;2.70;;
75626;SDS011;67372;49.404;11.034;2023-08-01T06:41:08;5.22;;;2.60;;
75626;SDS011;67372;49.404;11.034;2023-08-01T06:43:35;6.10;;;3.03;;
75626;SDS011;67372;49.404;11.034;2023-08-01T06:46:01;6.68;;;3.20;;
75626;SDS011;67372;49.404;11.034;2023-08-01T06:48:28;5.82;;;2.50;;
75626;SDS011;67372;49.404;11.034;2023-08-01T06:50:56;4.93;;;2.47;;
75626;SDS011;67372;49.404;11.034;2023-08-01T06:53:22;5.65;;;2.80;;
75626;SDS011;67372;49.404;11.034;2023-08-01T06:55:49;8.27;;;3.08;;
75626;SDS011;67372;49.404;11.034;2023-08-01T06:58:15;5.78;;;2.45;;
75626;SDS011;67372;49.404;11.034;2023-08-01T07:00:42;3.88;;;2.33;;
75626;SDS011;67372;49.404;11.034;2023-08-01T07:03:08;6.10;;;2.85;;
75626;SDS011;67372;49.404;11.034;2023-08-01T07:05:34;5.50;;;2.63;;
75626;SDS011;67372;49.404;11.034;2023-08-01T07:08:01;7.88;;;3.13;;
75626;SDS011;67372;49.404;11.034;2023-08-01T07:10:27;6.35;;;3.08;;
75626;SDS011;67372;49.404;11.034;2023-08-01T07:12:54;5.18;;;2.53;;
75626;SDS011;67372;49.404;11.034;2023-08-01T07:15:20;4.93;;;3.10;;
75626;SDS011;67372;49.404;11.034;2023-08-01T07:17:46;5.13;;;2.58;;
75626;SDS011;67372;49.404;11.034;2023-08-01T07:20:13;5.38;;;2.65;;
75626;SDS011;67372;49.404;11.034;2023-08-01T07:22:39;5.35;;;2.80;;
75626;SDS011;67372;49.404;11.034;2023-08-01T07:25:06;4.93;;;2.83;;
75626;SDS011;67372;49.404;11.034;2023-08-01T07:27:34;5.40;;;3.10;;
75626;SDS011;67372;49.404;11.034;2023-08-01T07:30:00;4.70;;;2.72;;
75626;SDS011;67372;49.404;11.034;2023-08-01T07:32:27;4.40;;;2.53;;
75626;SDS011;67372;49.404;11.034;2023-08-01T07:34:53;4.10;;;2.63;;
75626;SDS011;67372;49.404;11.034;2023-08-01T07:37:19;6.30;;;3.20;;
75626;SDS011;67372;49.404;11.034;2023-08-01T07:39:46;5.50;;;2.83;;
75626;SDS011;67372;49.404;11.034;2023-08-01T07:42:12;7.28;;;3.20;;
75626;SDS011;67372;49.404;11.034;2023-08-01T07:44:39;6.10;;;3.22;;
75626;SDS011;67372;49.404;11.034;2023-08-01T07:47:05;8.32;;;3.05;;
75626;SDS011;67372;49.404;11.034;2023-08-01T07:49:31;5.35;;;3.05;;
75626;SDS011;67372;49.404;11.034;2023-08-01T07:51:58;5.45;;;3.10;;
75626;SDS011;67372;49.404;11.034;2023-08-01T07:54:24;5.53;;;2.83;;
75626;SDS011;67372;49.404;11.034;2023-08-01T07:56:51;6.28;;;3.05;;
75626;SDS011;67372;49.404;11.034;2023-08-01T07:59:17;6.25;;;2.90;;
75626;SDS011;67372;49.404;11.034;2023-08-01T08:01:43;6.05;;;3.03;;
75626;SDS011;67372;49.404;11.034;2023-08-01T08:04:10;6.78;;;3.05;;
75626;SDS011;67372;49.404;11.034;2023-08-01T08:06:36;5.55;;;2.90;;
75626;SDS011;67372;49.404;11.034;2023-08-01T08:09:04;4.70;;;2.75;;
75626;SDS011;67372;49.404;11.034;2023-08-01T08:11:30;4.43;;;2.67;;
75626;SDS011;67372;49.404;11.034;2023-08-01T08:13:57;4.72;;;2.70;;
75626;SDS011;67372;49.404;11.034;2023-08-01T08:16:23;5.80;;;2.80;;
75626;SDS011;67372;49.404;11.034;2023-08-01T08:18:50;6.57;;;2.75;;
75626;SDS011;67372;49.404;11.034;2023-08-01T08:21:16;4.80;;;2.42;;
75626;SDS011;67372;49.404;11.034;2023-08-01T08:23:42;5.97;;;2.47;;
75626;SDS011;67372;49.404;11.034;2023-08-01T08:26:09;4.93;;;2.70;;
75626;SDS011;67372;49.404;11.034;2023-08-01T08:28:36;4.25;;;2.40;;
75626;SDS011;67372;49.404;11.034;2023-08-01T08:31:02;5.50;;;2.78;;
75626;SDS011;67372;49.404;11.034;2023-08-01T08:33:29;4.45;;;2.30;;
75626;SDS011;67372;49.404;11.034;2023-08-01T08:35:55;4.35;;;2.55;;
75626;SDS011;67372;49.404;11.034;2023-08-01T08:38:22;4.80;;;2.70;;
75626;SDS011;67372;49.404;11.034;2023-08-01T08:40:52;5.28;;;2.75;;
75626;SDS011;67372;49.404;11.034;2023-08-01T08:43:34;5.97;;;2.88;;
75626;SDS011;67372;49.404;11.034;2023-08-01T08:46:01;5.38;;;2.92;;
75626;SDS011;67372;49.404;11.034;2023-08-01T08:48:29;5.45;;;2.70;;
75626;SDS011;67372;49.404;11.034;2023-08-01T08:51:00;5.03;;;2.75;;
75626;SDS011;67372;49.404;11.034;2023-08-01T08:53:30;5.85;;;2.70;;
75626;SDS011;67372;49.404;11.034;2023-08-01T08:55:57;5.22;;;2.67;;
75626;SDS011;67372;49.404;11.034;2023-08-01T08:58:25;5.10;;;2.42;;
75626;SDS011;67372;49.404;11.034;2023-08-01T09:00:52;4.72;;;2.45;;
75626;SDS011;67372;49.404;11.034;2023-08-01T09:03:19;4.78;;;2.60;;
75626;SDS011;67372;49.404;11.034;2023-08-01T09:05:54;5.10;;;2.63;;
75626;SDS011;67372;49.404;11.034;2023-08-01T09:08:30;5.40;;;2.78;;
75626;SDS011;67372;49.404;11.034;2023-08-01T09:11:01;4.68;;;2.42;;
75626;SDS011;67372;49.404;11.034;2023-08-01T09:13:27;5.53;;;2.42;;
75626;SDS011;67372;49.404;11.034;2023-08-01T09:15:53;5.93;;;2.58;;
75626;SDS011;67372;49.404;11.034;2023-08-01T09:18:22;4.93;;;2.55;;
75626;SDS011;67372;49.404;11.034;2023-08-01T09:20:49;4.93;;;2.33;;
75626;SDS011;67372;49.404;11.034;2023-08-01T09:25:43;6.22;;;2.80;;
75626;SDS011;67372;49.404;11.034;2023-08-01T09:28:14;5.00;;;2.53;;
75626;SDS011;67372;49.404;11.034;2023-08-01T09:30:52;7.00;;;2.80;;
75626;SDS011;67372;49.404;11.034;2023-08-01T09:33:19;5.18;;;2.42;;
75626;SDS011;67372;49.404;11.034;2023-08-01T09:35:45;8.93;;;2.80;;
75626;SDS011;67372;49.404;11.034;2023-08-01T09:38:12;5.70;;;2.63;;
75626;SDS011;67372;49.404;11.034;2023-08-01T09:40:40;6.03;;;2.83;;
75626;SDS011;67372;49.404;11.034;2023-08-01T09:43:07;5.93;;;3.22;;
75626;SDS011;67372;49.404;11.034;2023-08-01T09:45:34;4.72;;;2.50;;
75626;SDS011;67372;49.404;11.034;2023-08-01T09:48:01;4.22;;;2.42;;
75626;SDS011;67372;49.404;11.034;2023-08-01T09:50:27;3.47;;;2.17;;
75626;SDS011;67372;49.404;11.034;2023-08-01T09:52:54;5.40;;;2.42;;
75626;SDS011;67372;49.404;11.034;2023-08-01T09:55:30;4.18;;;2.40;;
75626;SDS011;67372;49.404;11.034;2023-08-01T09:57:58;4.38;;;2.30;;
75626;SDS011;67372;49.404;11.034;2023-08-01T10:00:29;5.05;;;2.42;;
75626;SDS011;67372;49.404;11.034;2023-08-01T10:02:59;4.45;;;2.40;;
75626;SDS011;67372;49.404;11.034;2023-08-01T10:05:31;4.53;;;2.45;;
75626;SDS011;67372;49.404;11.034;2023-08-01T10:07:58;4.13;;;2.40;;
75626;SDS011;67372;49.404;11.034;2023-08-01T10:10:26;4.97;;;2.70;;
75626;SDS011;67372;49.404;11.034;2023-08-01T10:12:54;4.55;;;2.40;;
75626;SDS011;67372;49.404;11.034;2023-08-01T10:15:23;4.60;;;2.50;;
75626;SDS011;67372;49.404;11.034;2023-08-01T10:17:51;4.38;;;2.35;;
75626;SDS011;67372;49.404;11.034;2023-08-01T10:20:17;4.32;;;2.40;;
75626;SDS011;67372;49.404;11.034;2023-08-01T10:22:44;4.10;;;2.30;;
75626;SDS011;67372;49.404;11.034;2023-08-01T10:25:11;4.20;;;2.40;;
75626;SDS011;67372;49.404;11.034;2023-08-01T10:27:38;4.20;;;2.33;;
75626;SDS011;67372;49.404;11.034;2023-08-01T10:30:05;4.45;;;2.28;;
75626;SDS011;67372;49.404;11.034;2023-08-01T10:32:35;3.85;;;2.13;;
75626;SDS011;67372;49.404;11.034;2023-08-01T10:35:03;4.50;;;2.50;;
75626;SDS011;67372;49.404;11.034;2023-08-01T10:37:45;4.65;;;2.00;;
75626;SDS011;67372;49.404;11.034;2023-08-01T10:40:12;3.08;;;2.13;;
75626;SDS011;67372;49.404;11.034;2023-08-01T10:42:44;3.85;;;2.50;;
75626;SDS011;67372;49.404;11.034;2023-08-01T10:45:21;4.25;;;1.92;;
75626;SDS011;67372;49.404;11.034;2023-08-01T10:47:49;2.70;;;1.90;;
75626;SDS011;67372;49.404;11.034;2023-08-01T10:50:17;5.03;;;2.20;;
75626;SDS011;67372;49.404;11.034;2023-08-01T10:52:45;6.20;;;2.63;;
75626;SDS011;67372;49.404;11.034;2023-08-01T10:55:12;2.70;;;1.65;;
75626;SDS011;67372;49.404;11.034;2023-08-01T10:57:39;3.20;;;1.85;;
75626;SDS011;67372;49.404;11.034;2023-08-01T11:00:14;4.10;;;1.70;;
75626;SDS011;67372;49.404;11.034;2023-08-01T11:02:48;4.25;;;1.90;;
75626;SDS011;67372;49.404;11.034;2023-08-01T11:05:15;2.95;;;1.77;;
75626;SDS011;67372;49.404;11.034;2023-08-01T11:07:42;3.67;;;1.75;;
75626;SDS011;67372;49.404;11.034;2023-08-01T11:10:19;3.33;;;1.85;;
75626;SDS011;67372;49.404;11.034;2023-08-01T11:12:45;2.92;;;1.55;;
75626;SDS011;67372;49.404;11.034;2023-08-01T11:15:12;2.92;;;1.40;;
75626;SDS011;67372;49.404;11.034;2023-08-01T11:17:40;2.42;;;1.40;;
75626;SDS011;67372;49.404;11.034;2023-08-01T11:20:09;1.73;;;1.30;;
75626;SDS011;67372;49.404;11.034;2023-08-01T11:22:37;2.97;;;1.50;;
75626;SDS011;67372;49.404;11.034;2023-08-01T11:25:14;2.00;;;1.20;;
75626;SDS011;67372;49.404;11.034;2023-08-01T11:27:41;2.47;;;1.40;;
75626;SDS011;67372;49.404;11.034;2023-08-01T11:30:08;4.03;;;1.48;;
75626;SDS011;67372;49.404;11.034;2023-08-01T11:35:02;1.90;;;1.00;;
75626;SDS011;67372;49.404;11.034;2023-08-01T11:39:56;2.65;;;1.35;;
75626;SDS011;67372;49.404;11.034;2023-08-01T11:42:24;1.98;;;1.35;;
75626;SDS011;67372;49.404;11.034;2023-08-01T11:44:50;1.70;;;1.10;;
75626;SDS011;67372;49.404;11.034;2023-08-01T11:47:17;1.65;;;1.00;;
75626;SDS011;67372;49.404;11.034;2023-08-01T11:49:45;1.95;;;1.10;;
75626;SDS011;67372;49.404;11.034;2023-08-01T11:52:21;2.00;;;1.10;;
75626;SDS011;67372;49.404;11.034;2023-08-01T11:54:51;1.50;;;1.00;;
75626;SDS011;67372;49.404;11.034;2023-08-01T11:57:18;1.00;;;0.80;;
75626;SDS011;67372;49.404;11.034;2023-08-01T11:59:48;1.58;;;0.95;;
75626;SDS011;67372;49.404;11.034;2023-08-01T12:02:25;1.58;;;0.90;;
75626;SDS011;67372;49.404;11.034;2023-08-01T12:04:54;1.98;;;1.00;;
75626;SDS011;67372;49.404;11.034;2023-08-01T12:07:20;1.52;;;0.60;;
75626;SDS011;67372;49.404;11.034;2023-08-01T12:12:26;0.70;;;0.60;;
75626;SDS011;67372;49.404;11.034;2023-08-01T12:14:54;0.60;;;0.60;;
75626;SDS011;67372;49.404;11.034;2023-08-01T12:17:20;0.77;;;0.50;;
75626;SDS011;67372;49.404;11.034;2023-08-01T12:19:48;0.90;;;0.60;;
75626;SDS011;67372;49.404;11.034;2023-08-01T12:22:14;1.17;;;0.70;;
75626;SDS011;67372;49.404;11.034;2023-08-01T12:24:41;1.27;;;0.70;;
75626;SDS011;67372;49.404;11.034;2023-08-01T12:27:08;0.80;;;0.50;;
75626;SDS011;67372;49.404;11.034;2023-08-01T12:29:35;0.60;;;0.50;;
75626;SDS011;67372;49.404;11.034;2023-08-01T12:32:02;1.58;;;0.68;;
75626;SDS011;67372;49.404;11.034;2023-08-01T12:34:29;1.05;;;0.60;;
75626;SDS011;67372;49.404;11.034;2023-08-01T12:36:56;0.98;;;0.60;;
75626;SDS011;67372;49.404;11.034;2023-08-01T12:39:22;2.40;;;1.27;;
75626;SDS011;67372;49.404;11.034;2023-08-01T12:41:50;2.28;;;1.00;;
75626;SDS011;67372;49.404;11.034;2023-08-01T12:44:16;1.35;;;1.00;;
75626;SDS011;67372;49.404;11.034;2023-08-01T12:46:43;1.65;;;0.70;;
75626;SDS011;67372;49.404;11.034;2023-08-01T12:49:10;1.92;;;1.05;;
75626;SDS011;67372;49.404;11.034;2023-08-01T12:51:36;1.15;;;0.70;;
75626;SDS011;67372;49.404;11.034;2023-08-01T12:54:02;0.70;;;0.60;;
75626;SDS011;67372;49.404;11.034;2023-08-01T12:56:29;0.88;;;0.60;;
75626;SDS011;67372;49.404;11.034;2023-08-01T12:58:55;0.73;;;0.55;;
75626;SDS011;67372;49.404;11.034;2023-08-01T13:01:21;1.00;;;0.45;;
75626;SDS011;67372;49.404;11.034;2023-08-01T13:03:48;0.90;;;0.60;;
75626;SDS011;67372;49.404;11.034;2023-08-01T13:06:14;1.42;;;0.57;;
75626;SDS011;67372;49.404;11.034;2023-08-01T13:08:41;2.88;;;1.20;;
75626;SDS011;67372;49.404;11.034;2023-08-01T13:11:14;1.00;;;0.80;;
75626;SDS011;67372;49.404;11.034;2023-08-01T13:19:35;2.13;;;0.88;;
75626;SDS011;67372;49.404;11.034;2023-08-01T13:22:02;0.82;;;0.40;;
75626;SDS011;67372;49.404;11.034;2023-08-01T13:24:33;2.90;;;0.52;;
75626;SDS011;67372;49.404;11.034;2023-08-01T13:26:59;1.05;;;0.50;;
75626;SDS011;67372;49.404;11.034;2023-08-01T13:29:26;0.77;;;0.52;;
75626;SDS011;67372;49.404;11.034;2023-08-01T13:31:57;1.52;;;0.80;;
75626;SDS011;67372;49.404;11.034;2023-08-01T13:34:23;1.27;;;0.70;;
75626;SDS011;67372;49.404;11.034;2023-08-01T13:36:50;1.50;;;0.50;;
75626;SDS011;67372;49.404;11.034;2023-08-01T13:39:16;1.27;;;0.70;;
75626;SDS011;67372;49.404;11.034;2023-08-01T13:41:43;0.80;;;0.50;;
75626;SDS011;67372;49.404;11.034;2023-08-01T13:44:09;1.55;;;0.70;;
75626;SDS011;67372;49.404;11.034;2023-08-01T13:46:35;0.82;;;0.70;;
75626;SDS011;67372;49.404;11.034;2023-08-01T13:49:02;0.95;;;0.65;;
75626;SDS011;67372;49.404;11.034;2023-08-01T13:51:30;1.10;;;0.60;;
75626;SDS011;67372;49.404;11.034;2023-08-01T13:54:00;0.88;;;0.68;;
75626;SDS011;67372;49.404;11.034;2023-08-01T13:56:26;1.23;;;0.82;;
75626;SDS011;67372;49.404;11.034;2023-08-01T13:58:52;0.80;;;0.70;;
75626;SDS011;67372;49.404;11.034;2023-08-01T14:01:19;1.50;;;0.70;;
75626;SDS011;67372;49.404;11.034;2023-08-01T14:03:45;1.20;;;0.82;;
75626;SDS011;67372;49.404;11.034;2023-08-01T14:06:12;1.70;;;0.80;;
75626;SDS011;67372;49.404;11.034;2023-08-01T14:08:40;3.13;;;0.82;;
75626;SDS011;67372;49.404;11.034;2023-08-01T14:11:08;2.47;;;0.90;;
75626;SDS011;67372;49.404;11.034;2023-08-01T14:13:35;2.70;;;1.20;;
75626;SDS011;67372;49.404;11.034;2023-08-01T14:16:02;1.30;;;0.70;;
75626;SDS011;67372;49.404;11.034;2023-08-01T14:18:29;0.95;;;0.73;;
75626;SDS011;67372;49.404;11.034;2023-08-01T14:20:55;1.83;;;0.80;;
75626;SDS011;67372;49.404;11.034;2023-08-01T14:23:22;1.63;;;0.80;;
75626;SDS011;67372;49.404;11.034;2023-08-01T14:25:49;1.50;;;0.90;;
75626;SDS011;67372;49.404;11.034;2023-08-01T14:28:15;1.13;;;0.80;;
75626;SDS011;67372;49.404;11.034;2023-08-01T14:30:41;0.90;;;0.50;;
75626;SDS011;67372;49.404;11.034;2023-08-01T14:33:08;1.08;;;0.60;;
75626;SDS011;67372;49.404;11.034;2023-08-01T14:35:35;1.15;;;0.60;;
75626;SDS011;67372;49.404;11.034;2023-08-01T14:40:29;1.10;;;0.60;;
75626;SDS011;67372;49.404;11.034;2023-08-01T14:42:55;1.00;;;0.60;;
75626;SDS011;67372;49.404;11.034;2023-08-01T14:45:22;1.13;;;0.50;;
75626;SDS011;67372;49.404;11.034;2023-08-01T14:47:49;0.60;;;0.50;;
75626;SDS011;67372;49.404;11.034;2023-08-01T14:50:15;1.10;;;0.60;;
75626;SDS011;67372;49.404;11.034;2023-08-01T14:52:42;0.70;;;0.57;;
75626;SDS011;67372;49.404;11.034;2023-08-01T14:55:08;0.95;;;0.68;;